Star City, Canada
Current Conditions -  °F | °C
As of 7:00 PM on Thursday 18 Dec 2014 (Local Time) from CYBU Reporting Station
Overcast Overcast  
Wind Chill: 13°   Ceiling: 900
Heat Index: 21°   Visibility: 9mi
Dew Point: 21°   Wind: 7mph
Humidity: 100%   Direction: 150°SSE
Pressure: 29.91"   Gusts: NA
Location:  52.87°N, 104.33°W
Report Text: CYBU 190100Z AUTO 15006KT 9SM OVC009 M06/M06 A2991 RMK SLP157
Loading
Personal Weather Stations






























Interactive Weather Map New forecast layout! Learn more

10-Day Weather Forecast

Advertisements
Track Severe Weather on mobile